createdAt,value
2023-02-09T00:00:09.693Z,63.40
2023-02-09T00:06:12.736Z,64.40
2023-02-09T00:12:24.044Z,66.30
2023-02-09T00:18:18.890Z,67.40
2023-02-09T00:24:12.273Z,72.40
2023-02-09T00:30:06.370Z,78.10
2023-02-09T00:36:01.143Z,80.00
2023-02-09T00:42:10.960Z,80.40
2023-02-09T00:48:04.405Z,85.10
2023-02-09T00:53:59.369Z,84.40
2023-02-09T00:59:52.380Z,90.30
2023-02-09T01:05:45.464Z,90.20
2023-02-09T01:11:40.338Z,92.20
2023-02-09T01:17:33.793Z,94.00
2023-02-09T01:23:27.314Z,94.60
2023-02-09T01:29:22.954Z,90.30
2023-02-09T01:35:15.870Z,93.70
2023-02-09T01:41:08.849Z,95.40
2023-02-09T01:47:05.879Z,93.50
2023-02-09T01:52:59.375Z,94.70
2023-02-09T01:58:54.358Z,94.80
2023-02-09T02:04:49.186Z,96.60
2023-02-09T02:10:42.608Z,97.30
2023-02-09T02:16:49.736Z,98.40
2023-02-09T02:22:58.982Z,99.00
2023-02-09T02:29:24.522Z,99.90
2023-02-09T02:35:26.485Z,99.90
2023-02-09T02:41:27.698Z,99.90
2023-02-09T02:47:22.110Z,99.90
2023-02-09T02:53:18.884Z,99.90
2023-02-09T02:59:20.026Z,99.90
2023-02-09T03:05:13.387Z,99.90
2023-02-09T03:11:09.708Z,99.90
2023-02-09T03:17:14.555Z,99.90
2023-02-09T03:23:13.469Z,99.30
2023-02-09T03:29:10.808Z,99.90
2023-02-09T03:35:03.764Z,99.40
2023-02-09T03:40:57.265Z,98.70
2023-02-09T03:46:52.194Z,97.30
2023-02-09T03:52:45.695Z,97.30
2023-02-09T03:58:39.191Z,96.50
2023-02-09T04:04:34.020Z,97.30
2023-02-09T04:10:27.436Z,97.40
2023-02-09T04:16:21.423Z,96.50
2023-02-09T04:22:15.795Z,94.00
2023-02-09T04:28:10.448Z,95.60
2023-02-09T04:34:03.558Z,95.80
2023-02-09T04:39:57.851Z,94.50
2023-02-09T04:45:51.053Z,94.20
2023-02-09T04:51:44.154Z,95.80
2023-02-09T04:57:56.545Z,96.60
2023-02-09T05:03:50.127Z,97.20
2023-02-09T05:09:43.147Z,95.20
2023-02-09T05:15:37.786Z,97.20
2023-02-09T05:21:30.703Z,97.20
2023-02-09T05:27:23.742Z,95.50
2023-02-09T05:33:18.091Z,95.50
2023-02-09T05:39:11.531Z,95.40
2023-02-09T05:45:04.706Z,94.10
2023-02-09T05:50:59.528Z,92.90
2023-02-09T05:56:53.065Z,93.10
2023-02-09T06:02:46.364Z,93.80
2023-02-09T06:08:41.203Z,93.80
2023-02-09T06:14:34.690Z,94.10
2023-02-09T06:20:27.774Z,92.50
2023-02-09T06:26:22.823Z,89.80
2023-02-09T06:32:15.835Z,90.40
2023-02-09T06:38:08.943Z,91.50
2023-02-09T06:44:04.385Z,89.70
2023-02-09T06:49:57.829Z,86.40
2023-02-09T06:55:51.139Z,84.20
2023-02-09T07:01:45.777Z,80.60
2023-02-09T07:07:38.875Z,78.70
2023-02-09T07:13:32.553Z,79.60
2023-02-09T07:19:27.070Z,75.70
2023-02-09T07:25:20.295Z,77.60
2023-02-09T07:31:15.690Z,78.50
2023-02-09T07:37:10.057Z,79.90
2023-02-09T07:43:03.483Z,75.80
2023-02-09T07:49:00.852Z,77.50
2023-02-09T07:54:55.644Z,73.90
2023-02-09T08:00:50.228Z,69.70
2023-02-09T08:06:46.101Z,66.70
2023-02-09T08:12:59.355Z,64.10
2023-02-09T08:18:56.167Z,60.90
2023-02-09T08:24:49.917Z,55.90
2023-02-09T08:30:44.334Z,51.40
2023-02-09T08:36:37.969Z,50.80
2023-02-09T08:42:31.016Z,45.30
2023-02-09T08:48:25.328Z,37.40
2023-02-09T08:54:18.764Z,38.90
2023-02-09T09:00:13.606Z,37.30
2023-02-09T09:06:09.518Z,37.10
2023-02-09T09:12:03.055Z,30.50
2023-02-09T09:17:56.187Z,27.30
2023-02-09T09:23:50.683Z,27.30
2023-02-09T09:29:44.268Z,24.30
2023-02-09T09:35:37.330Z,18.20
2023-02-09T09:41:34.441Z,24.90
2023-02-09T09:47:36.141Z,20.80
2023-02-09T09:53:33.278Z,18.40
2023-02-09T09:59:32.060Z,18.10
2023-02-09T10:05:27.383Z,13.00
2023-02-09T10:11:24.866Z,10.70
2023-02-09T10:17:19.689Z,11.20
2023-02-09T10:23:22.288Z,7.00
2023-02-09T10:29:25.500Z,2.80
2023-02-09T10:35:29.348Z,3.10
2023-02-09T10:41:23.878Z,3.20
2023-02-09T10:47:28.606Z,3.40
2023-02-09T10:53:26.528Z,1.00
2023-02-09T10:59:21.656Z,1.00
2023-02-09T11:05:34.045Z,1.00
2023-02-09T11:11:33.586Z,1.00
2023-02-09T11:17:29.218Z,1.00
2023-02-09T11:23:39.636Z,1.00
2023-02-09T11:29:42.249Z,1.00
2023-02-09T11:35:48.121Z,1.00
2023-02-09T11:42:03.002Z,1.00
2023-02-09T11:48:05.877Z,1.00
2023-02-09T11:54:04.591Z,1.00
2023-02-09T12:00:00.471Z,1.00
2023-02-09T12:05:56.717Z,1.00
2023-02-09T12:12:05.691Z,1.00
2023-02-09T12:18:03.041Z,1.00
2023-02-09T12:23:57.399Z,1.00
2023-02-09T12:29:50.406Z,1.00
2023-02-09T12:35:44.610Z,1.00
2023-02-09T12:42:11.449Z,1.00
2023-02-09T12:48:17.869Z,1.00
2023-02-09T12:54:32.042Z,1.00
2023-02-09T13:00:41.765Z,1.00
2023-02-09T13:06:41.708Z,1.90
2023-02-09T13:12:40.390Z,1.00
2023-02-09T13:18:43.002Z,1.00
2023-02-09T13:24:42.706Z,3.40
2023-02-09T13:30:35.686Z,3.40
2023-02-09T13:36:39.478Z,4.00
2023-02-09T13:42:38.078Z,3.50
2023-02-09T13:48:35.042Z,6.50
2023-02-09T13:54:28.506Z,7.10
2023-02-09T14:00:29.475Z,9.80
2023-02-09T14:06:36.986Z,12.00
2023-02-09T14:13:00.263Z,12.30
2023-02-09T14:18:56.562Z,16.40
2023-02-09T14:24:50.015Z,15.10
2023-02-09T14:30:51.460Z,15.70
2023-02-09T14:36:53.691Z,16.00
2023-02-09T14:42:57.685Z,16.80
2023-02-09T14:48:51.727Z,17.10
2023-02-09T14:54:49.796Z,19.20
2023-02-09T15:00:42.731Z,20.10
2023-02-09T15:06:36.521Z,21.70
2023-02-09T15:12:30.993Z,23.00
2023-02-09T15:18:26.378Z,24.40
2023-02-09T15:24:19.392Z,26.00
2023-02-09T15:30:18.853Z,28.10
2023-02-09T15:36:15.744Z,31.20
2023-02-09T15:42:32.891Z,32.20
2023-02-09T15:48:27.308Z,33.10
2023-02-09T15:54:21.796Z,36.20
2023-02-09T16:00:21.646Z,35.90
2023-02-09T16:06:18.959Z,37.70
2023-02-09T16:12:12.799Z,37.90
2023-02-09T16:18:06.424Z,39.40
2023-02-09T16:24:03.453Z,39.60
2023-02-09T16:29:56.601Z,42.10
2023-02-09T16:35:53.450Z,48.00
2023-02-09T16:41:50.323Z,60.80
2023-02-09T16:47:45.984Z,68.50
2023-02-09T16:53:43.977Z,74.60
2023-02-09T16:59:38.272Z,71.20
2023-02-09T17:05:35.266Z,72.70
2023-02-09T17:11:29.488Z,71.90
2023-02-09T17:17:24.430Z,70.90
2023-02-09T17:23:19.004Z,72.80
2023-02-09T17:29:12.545Z,75.20
2023-02-09T17:35:14.144Z,78.20
2023-02-09T17:41:13.549Z,79.80
2023-02-09T17:47:07.059Z,80.70
2023-02-09T17:53:01.705Z,83.40
2023-02-09T17:58:56.177Z,84.90
2023-02-09T18:04:49.713Z,87.10
2023-02-09T18:10:44.544Z,90.30
2023-02-09T18:16:37.765Z,90.90
2023-02-09T18:22:30.917Z,92.70
2023-02-09T18:28:25.269Z,94.70
2023-02-09T18:34:18.416Z,98.50
2023-02-09T18:40:12.500Z,99.90
2023-02-09T18:46:07.122Z,99.90
2023-02-09T18:52:01.955Z,99.90
2023-02-09T18:57:55.342Z,99.90
2023-02-09T19:03:51.821Z,99.90
2023-02-09T19:09:45.867Z,99.90
2023-02-09T19:15:40.051Z,99.90
2023-02-09T19:21:34.430Z,99.90
2023-02-09T19:27:29.563Z,99.90
2023-02-09T19:33:23.356Z,99.90
2023-02-09T19:39:19.531Z,99.90
2023-02-09T19:45:12.936Z,99.90
2023-02-09T19:51:06.723Z,99.90
2023-02-09T19:57:03.538Z,99.90
2023-02-09T20:02:57.005Z,99.90
2023-02-09T20:08:50.151Z,99.90
2023-02-09T20:14:44.935Z,99.90
2023-02-09T20:20:42.058Z,99.90
2023-02-09T20:26:35.210Z,99.90
2023-02-09T20:32:30.540Z,99.90
2023-02-09T20:38:23.991Z,99.90
2023-02-09T20:44:34.980Z,99.90
2023-02-09T20:50:32.666Z,99.90
2023-02-09T20:56:26.438Z,99.90
2023-02-09T21:02:19.440Z,99.90
2023-02-09T21:08:14.331Z,99.90
2023-02-09T21:14:07.596Z,99.90
2023-02-09T21:20:01.556Z,99.90
2023-02-09T21:26:03.021Z,99.90
2023-02-09T21:31:56.774Z,99.90
2023-02-09T21:37:50.276Z,99.90
2023-02-09T21:43:45.002Z,99.90
2023-02-09T21:49:37.954Z,99.90
2023-02-09T21:55:31.437Z,99.90
2023-02-09T22:01:26.313Z,99.90
2023-02-09T22:07:19.799Z,99.90
2023-02-09T22:13:12.792Z,99.90
2023-02-09T22:19:07.184Z,99.90
2023-02-09T22:25:00.681Z,99.90
2023-02-09T22:30:54.193Z,99.90
2023-02-09T22:36:52.554Z,99.90
2023-02-09T22:42:47.082Z,99.90
2023-02-09T22:48:40.452Z,99.90
2023-02-09T22:54:35.381Z,99.90
2023-02-09T23:00:28.425Z,1.00
2023-02-09T23:06:25.008Z,1.00
2023-02-09T23:12:19.410Z,1.00
2023-02-09T23:18:12.498Z,1.00
2023-02-09T23:24:06.652Z,1.00
2023-02-09T23:30:01.460Z,1.00
2023-02-09T23:35:54.521Z,1.00
2023-02-09T23:41:48.051Z,1.00
2023-02-09T23:47:42.540Z,1.00
2023-02-09T23:53:36.660Z,1.00
2023-02-09T23:59:30.542Z,1.00
